sensor_id;sensor_type;location;lat;lon;timestamp;pressure;altitude;pressure_sealevel;temperature;humidity
23164;BME280;31429;42.674;23.350;2023-02-03T00:00:07;94991.66;;;4.33;100.00
23164;BME280;31429;42.674;23.350;2023-02-03T00:01:08;94998.41;;;4.33;100.00
23164;BME280;31429;42.674;23.350;2023-02-03T00:02:08;94997.44;;;4.43;100.00
23164;BME280;31429;42.674;23.350;2023-02-03T00:03:09;94989.16;;;4.29;100.00
23164;BME280;31429;42.674;23.350;2023-02-03T00:04:09;95006.94;;;4.21;100.00
23164;BME280;31429;42.674;23.350;2023-02-03T00:05:10;95005.16;;;4.29;100.00
23164;BME280;31429;42.674;23.350;2023-02-03T00:06:11;95000.06;;;4.35;100.00
23164;BME280;31429;42.674;23.350;2023-02-03T00:07:12;94999.97;;;4.44;100.00
23164;BME280;31429;42.674;23.350;2023-02-03T00:08:14;95003.41;;;4.39;100.00
23164;BME280;31429;42.674;23.350;2023-02-03T00:09:18;95002.44;;;4.50;100.00
23164;BME280;31429;42.674;23.350;2023-02-03T00:10:20;95004.13;;;4.50;100.00
23164;BME280;31429;42.674;23.350;2023-02-03T00:11:21;95011.91;;;4.29;100.00
23164;BME280;31429;42.674;23.350;2023-02-03T00:12:22;95016.34;;;4.09;100.00
23164;BME280;31429;42.674;23.350;2023-02-03T00:13:22;95012.97;;;4.11;100.00
23164;BME280;31429;42.674;23.350;2023-02-03T00:14:25;95013.72;;;4.19;100.00
23164;BME280;31429;42.674;23.350;2023-02-03T00:15:25;95005.31;;;4.17;100.00
23164;BME280;31429;42.674;23.350;2023-02-03T00:16:26;95018.72;;;4.24;100.00
23164;BME280;31429;42.674;23.350;2023-02-03T00:17:27;95005.22;;;4.28;100.00
23164;BME280;31429;42.674;23.350;2023-02-03T00:18:27;95022.00;;;4.36;100.00
23164;BME280;31429;42.674;23.350;2023-02-03T00:19:28;95028.09;;;4.14;100.00
23164;BME280;31429;42.674;23.350;2023-02-03T00:20:29;95021.59;;;3.87;100.00
23164;BME280;31429;42.674;23.350;2023-02-03T00:21:30;95021.44;;;4.04;100.00
23164;BME280;31429;42.674;23.350;2023-02-03T00:22:30;95024.09;;;3.90;100.00
23164;BME280;31429;42.674;23.350;2023-02-03T00:23:31;95019.81;;;3.98;100.00
23164;BME280;31429;42.674;23.350;2023-02-03T00:24:33;95020.63;;;4.00;100.00
23164;BME280;31429;42.674;23.350;2023-02-03T00:25:34;95019.91;;;3.86;100.00
23164;BME280;31429;42.674;23.350;2023-02-03T00:26:39;95020.22;;;3.45;100.00
23164;BME280;31429;42.674;23.350;2023-02-03T00:27:40;95017.72;;;3.38;100.00
23164;BME280;31429;42.674;23.350;2023-02-03T00:28:41;95021.84;;;3.51;100.00
23164;BME280;31429;42.674;23.350;2023-02-03T00:29:42;95017.63;;;3.53;100.00
23164;BME280;31429;42.674;23.350;2023-02-03T00:30:42;95026.88;;;3.56;100.00
23164;BME280;31429;42.674;23.350;2023-02-03T00:31:43;95020.78;;;3.81;100.00
23164;BME280;31429;42.674;23.350;2023-02-03T00:32:44;95019.31;;;3.51;100.00
23164;BME280;31429;42.674;23.350;2023-02-03T00:33:44;95019.25;;;3.62;100.00
23164;BME280;31429;42.674;23.350;2023-02-03T00:34:45;95025.09;;;3.67;100.00
23164;BME280;31429;42.674;23.350;2023-02-03T00:35:46;95022.47;;;3.82;100.00
23164;BME280;31429;42.674;23.350;2023-02-03T00:36:46;95025.09;;;3.67;100.00
23164;BME280;31429;42.674;23.350;2023-02-03T00:37:50;95019.38;;;3.42;100.00
23164;BME280;31429;42.674;23.350;2023-02-03T00:38:51;95032.19;;;3.07;100.00
23164;BME280;31429;42.674;23.350;2023-02-03T00:39:53;95036.34;;;3.19;100.00
23164;BME280;31429;42.674;23.350;2023-02-03T00:40:54;95038.97;;;3.04;100.00
23164;BME280;31429;42.674;23.350;2023-02-03T00:41:55;95043.09;;;3.18;100.00
23164;BME280;31429;42.674;23.350;2023-02-03T00:42:56;95036.41;;;3.10;100.00
23164;BME280;31429;42.674;23.350;2023-02-03T00:43:57;95043.94;;;3.20;100.00
23164;BME280;31429;42.674;23.350;2023-02-03T00:44:57;95037.16;;;3.28;100.00
23164;BME280;31429;42.674;23.350;2023-02-03T00:45:58;95043.97;;;3.14;100.00
23164;BME280;31429;42.674;23.350;2023-02-03T00:46:59;95033.00;;;3.15;100.00
23164;BME280;31429;42.674;23.350;2023-02-03T00:47:59;95039.81;;;3.03;100.00
23164;BME280;31429;42.674;23.350;2023-02-03T00:49:00;95031.34;;;3.14;100.00
23164;BME280;31429;42.674;23.350;2023-02-03T00:50:01;95044.69;;;3.36;100.00
23164;BME280;31429;42.674;23.350;2023-02-03T00:51:01;95043.00;;;3.36;100.00
23164;BME280;31429;42.674;23.350;2023-02-03T00:52:03;95047.16;;;3.45;100.00
23164;BME280;31429;42.674;23.350;2023-02-03T00:53:03;95049.78;;;3.27;100.00
23164;BME280;31429;42.674;23.350;2023-02-03T00:54:05;95044.81;;;3.12;100.00
23164;BME280;31429;42.674;23.350;2023-02-03T00:55:07;95043.19;;;3.03;100.00
23164;BME280;31429;42.674;23.350;2023-02-03T00:56:08;95041.44;;;3.10;100.00
23164;BME280;31429;42.674;23.350;2023-02-03T00:57:12;95050.75;;;3.06;100.00
23164;BME280;31429;42.674;23.350;2023-02-03T00:58:12;95054.81;;;3.31;100.00
23164;BME280;31429;42.674;23.350;2023-02-03T00:59:13;95053.16;;;3.29;100.00
23164;BME280;31429;42.674;23.350;2023-02-03T01:00:14;95056.56;;;3.19;100.00
23164;BME280;31429;42.674;23.350;2023-02-03T01:01:15;95059.13;;;3.07;100.00
23164;BME280;31429;42.674;23.350;2023-02-03T01:02:16;95054.75;;;3.45;100.00
23164;BME280;31429;42.674;23.350;2023-02-03T01:03:17;95050.50;;;3.52;100.00
23164;BME280;31429;42.674;23.350;2023-02-03T01:04:17;95055.75;;;3.14;100.00
23164;BME280;31429;42.674;23.350;2023-02-03T01:05:18;95054.06;;;3.13;100.00
23164;BME280;31429;42.674;23.350;2023-02-03T01:06:19;95053.22;;;3.12;100.00
23164;BME280;31429;42.674;23.350;2023-02-03T01:07:20;95070.75;;;3.45;100.00
23164;BME280;31429;42.674;23.350;2023-02-03T01:08:21;95069.06;;;3.41;100.00
23164;BME280;31429;42.674;23.350;2023-02-03T01:09:23;95064.16;;;3.20;100.00
23164;BME280;31429;42.674;23.350;2023-02-03T01:10:25;95066.56;;;3.40;100.00
23164;BME280;31429;42.674;23.350;2023-02-03T01:11:26;95070.78;;;3.36;100.00
23164;BME280;31429;42.674;23.350;2023-02-03T01:12:28;95070.88;;;3.15;100.00
23164;BME280;31429;42.674;23.350;2023-02-03T01:13:29;95061.72;;;2.98;100.00
23164;BME280;31429;42.674;23.350;2023-02-03T01:14:29;95065.88;;;3.05;100.00
23164;BME280;31429;42.674;23.350;2023-02-03T01:15:30;95065.13;;;2.86;100.00
23164;BME280;31429;42.674;23.350;2023-02-03T01:16:31;95059.31;;;2.63;100.00
23164;BME280;31429;42.674;23.350;2023-02-03T01:17:35;95052.44;;;3.00;100.00
23164;BME280;31429;42.674;23.350;2023-02-03T01:18:36;95058.34;;;3.03;100.00
23164;BME280;31429;42.674;23.350;2023-02-03T01:19:37;95052.44;;;3.00;100.00
23164;BME280;31429;42.674;23.350;2023-02-03T01:20:37;95059.09;;;3.19;100.00
23164;BME280;31429;42.674;23.350;2023-02-03T01:21:38;95054.91;;;3.15;100.00
23164;BME280;31429;42.674;23.350;2023-02-03T01:22:39;95053.25;;;3.05;100.00
23164;BME280;31429;42.674;23.350;2023-02-03T01:23:39;95058.38;;;2.91;100.00
23164;BME280;31429;42.674;23.350;2023-02-03T01:24:40;95062.66;;;2.68;100.00
23164;BME280;31429;42.674;23.350;2023-02-03T01:25:42;95053.38;;;2.70;100.00
23164;BME280;31429;42.674;23.350;2023-02-03T01:26:43;95044.84;;;3.01;100.00
23164;BME280;31429;42.674;23.350;2023-02-03T01:27:43;95043.13;;;3.11;100.00
23164;BME280;31429;42.674;23.350;2023-02-03T01:28:50;95035.59;;;3.05;100.00
23164;BME280;31429;42.674;23.350;2023-02-03T01:29:51;95029.75;;;2.95;100.00
23164;BME280;31429;42.674;23.350;2023-02-03T01:30:51;95049.00;;;3.16;100.00
23164;BME280;31429;42.674;23.350;2023-02-03T01:31:52;95042.16;;;3.37;100.00
23164;BME280;31429;42.674;23.350;2023-02-03T01:32:52;95044.81;;;3.18;100.00
23164;BME280;31429;42.674;23.350;2023-02-03T01:33:54;95038.94;;;3.07;100.00
23164;BME280;31429;42.674;23.350;2023-02-03T01:34:55;95046.38;;;3.34;100.00
23164;BME280;31429;42.674;23.350;2023-02-03T01:35:55;95043.78;;;3.47;100.00
23164;BME280;31429;42.674;23.350;2023-02-03T01:36:59;95048.88;;;3.35;100.00
23164;BME280;31429;42.674;23.350;2023-02-03T01:38:00;95045.44;;;3.52;100.00
23164;BME280;31429;42.674;23.350;2023-02-03T01:39:00;95049.53;;;3.71;100.00
23164;BME280;31429;42.674;23.350;2023-02-03T01:40:01;95048.06;;;3.36;100.00
23164;BME280;31429;42.674;23.350;2023-02-03T01:41:06;95059.91;;;3.21;100.00
23164;BME280;31429;42.674;23.350;2023-02-03T01:42:07;95054.97;;;3.03;100.00
23164;BME280;31429;42.674;23.350;2023-02-03T01:43:10;95053.22;;;3.17;100.00
23164;BME280;31429;42.674;23.350;2023-02-03T01:44:40;95060.50;;;3.68;100.00
23164;BME280;31429;42.674;23.350;2023-02-03T01:45:40;95056.25;;;3.73;100.00
23164;BME280;31429;42.674;23.350;2023-02-03T01:46:46;95053.69;;;3.75;100.00
23164;BME280;31429;42.674;23.350;2023-02-03T01:47:50;95067.06;;;3.89;100.00
23164;BME280;31429;42.674;23.350;2023-02-03T01:48:53;95072.19;;;3.86;100.00
23164;BME280;31429;42.674;23.350;2023-02-03T01:50:02;95066.34;;;3.75;100.00
23164;BME280;31429;42.674;23.350;2023-02-03T01:51:03;95079.94;;;3.56;100.00
23164;BME280;31429;42.674;23.350;2023-02-03T01:52:04;95068.25;;;3.35;100.00
23164;BME280;31429;42.674;23.350;2023-02-03T01:53:08;95058.94;;;3.47;100.00
23164;BME280;31429;42.674;23.350;2023-02-03T01:54:13;95059.72;;;3.56;100.00
23164;BME280;31429;42.674;23.350;2023-02-03T01:55:18;95063.84;;;3.70;100.00
23164;BME280;31429;42.674;23.350;2023-02-03T01:56:22;95055.50;;;3.59;100.00
23164;BME280;31429;42.674;23.350;2023-02-03T01:57:29;95060.59;;;3.52;100.00
23164;BME280;31429;42.674;23.350;2023-02-03T01:58:35;95051.97;;;3.78;100.00
23164;BME280;31429;42.674;23.350;2023-02-03T01:59:37;95066.53;;;3.44;100.00
23164;BME280;31429;42.674;23.350;2023-02-03T02:00:38;95065.66;;;3.50;100.00
23164;BME280;31429;42.674;23.350;2023-02-03T02:01:38;95075.81;;;3.38;100.00
23164;BME280;31429;42.674;23.350;2023-02-03T02:02:40;95069.13;;;3.31;100.00
23164;BME280;31429;42.674;23.350;2023-02-03T02:03:45;95065.00;;;3.13;100.00
23164;BME280;31429;42.674;23.350;2023-02-03T02:04:54;95082.56;;;3.40;100.00
23164;BME280;31429;42.674;23.350;2023-02-03T02:06:00;95071.47;;;3.64;100.00
23164;BME280;31429;42.674;23.350;2023-02-03T02:07:02;95077.47;;;3.43;100.00
23164;BME280;31429;42.674;23.350;2023-02-03T02:08:04;95068.94;;;3.64;100.00
23164;BME280;31429;42.674;23.350;2023-02-03T02:09:06;95074.16;;;3.32;100.00
23164;BME280;31429;42.674;23.350;2023-02-03T02:10:08;95072.47;;;3.36;100.00
23164;BME280;31429;42.674;23.350;2023-02-03T02:11:08;95076.50;;;3.67;100.00
23164;BME280;31429;42.674;23.350;2023-02-03T02:12:11;95072.94;;;3.92;100.00
23164;BME280;31429;42.674;23.350;2023-02-03T02:13:12;95065.63;;;3.56;100.00
23164;BME280;31429;42.674;23.350;2023-02-03T02:14:14;95068.06;;;3.67;100.00
23164;BME280;31429;42.674;23.350;2023-02-03T02:15:15;95066.50;;;3.51;100.00
23164;BME280;31429;42.674;23.350;2023-02-03T02:16:18;95075.00;;;3.39;100.00
23164;BME280;31429;42.674;23.350;2023-02-03T02:17:33;95077.44;;;3.53;100.00
23164;BME280;31429;42.674;23.350;2023-02-03T02:18:49;95074.09;;;3.51;100.00
23164;BME280;31429;42.674;23.350;2023-02-03T02:21:58;95081.72;;;3.43;100.00
23164;BME280;31429;42.674;23.350;2023-02-03T02:23:17;95075.78;;;3.44;100.00
23164;BME280;31429;42.674;23.350;2023-02-03T02:24:56;95079.13;;;3.54;100.00
23164;BME280;31429;42.674;23.350;2023-02-03T02:26:17;95072.38;;;3.56;100.00
23164;BME280;31429;42.674;23.350;2023-02-03T02:27:35;95081.50;;;3.76;100.00
23164;BME280;31429;42.674;23.350;2023-02-03T02:29:02;95072.28;;;3.68;100.00
23164;BME280;31429;42.674;23.350;2023-02-03T02:30:33;95084.34;;;3.23;100.00
23164;BME280;31429;42.674;23.350;2023-02-03T02:31:48;95081.75;;;3.34;100.00
23164;BME280;31429;42.674;23.350;2023-02-03T02:33:00;95086.78;;;3.38;100.00
23164;BME280;31429;42.674;23.350;2023-02-03T02:34:06;95089.22;;;3.54;100.00
23164;BME280;31429;42.674;23.350;2023-02-03T02:35:15;95085.16;;;3.24;100.00
23164;BME280;31429;42.674;23.350;2023-02-03T02:36:24;95091.75;;;3.57;100.00
23164;BME280;31429;42.674;23.350;2023-02-03T02:37:36;95087.56;;;3.46;100.00
23164;BME280;31429;42.674;23.350;2023-02-03T02:38:47;95094.34;;;3.38;100.00
23164;BME280;31429;42.674;23.350;2023-02-03T02:39:54;95095.09;;;3.60;100.00
23164;BME280;31429;42.674;23.350;2023-02-03T02:41:02;95095.09;;;3.63;100.00
23164;BME280;31429;42.674;23.350;2023-02-03T02:42:07;95097.56;;;3.66;100.00
23164;BME280;31429;42.674;23.350;2023-02-03T02:43:17;95091.94;;;3.19;100.00
23164;BME280;31429;42.674;23.350;2023-02-03T02:44:23;95105.38;;;3.24;100.00
23164;BME280;31429;42.674;23.350;2023-02-03T02:45:28;95104.59;;;3.08;100.00
23164;BME280;31429;42.674;23.350;2023-02-03T02:46:32;95100.50;;;2.80;100.00
23164;BME280;31429;42.674;23.350;2023-02-03T02:47:36;95099.53;;;3.11;100.00
23164;BME280;31429;42.674;23.350;2023-02-03T02:48:42;95096.16;;;3.17;100.00
23164;BME280;31429;42.674;23.350;2023-02-03T02:49:49;95091.94;;;3.20;100.00
23164;BME280;31429;42.674;23.350;2023-02-03T02:50:53;95098.50;;;3.50;100.00
23164;BME280;31429;42.674;23.350;2023-02-03T02:51:56;95098.53;;;3.44;100.00
23164;BME280;31429;42.674;23.350;2023-02-03T02:52:57;95102.94;;;3.06;100.00
23164;BME280;31429;42.674;23.350;2023-02-03T02:54:00;95099.53;;;3.17;100.00
23164;BME280;31429;42.674;23.350;2023-02-03T02:55:06;95103.72;;;3.12;100.00
23164;BME280;31429;42.674;23.350;2023-02-03T02:56:08;95109.69;;;2.90;100.00
23164;BME280;31429;42.674;23.350;2023-02-03T02:57:11;95116.44;;;2.97;100.00
23164;BME280;31429;42.674;23.350;2023-02-03T02:58:14;95097.81;;;3.22;100.00
23164;BME280;31429;42.674;23.350;2023-02-03T02:59:16;95095.06;;;3.62;100.00
23164;BME280;31429;42.674;23.350;2023-02-03T03:00:17;95083.44;;;3.33;100.00
23164;BME280;31429;42.674;23.350;2023-02-03T03:01:18;95084.28;;;3.32;100.00
23164;BME280;31429;42.674;23.350;2023-02-03T03:02:19;95093.47;;;3.50;100.00
23164;BME280;31429;42.674;23.350;2023-02-03T03:03:22;95088.25;;;3.73;100.00
23164;BME280;31429;42.674;23.350;2023-02-03T03:04:25;95085.72;;;3.73;100.00
23164;BME280;31429;42.674;23.350;2023-02-03T03:05:27;95097.53;;;3.77;100.00
23164;BME280;31429;42.674;23.350;2023-02-03T03:06:31;95089.97;;;3.71;100.00
23164;BME280;31429;42.674;23.350;2023-02-03T03:07:38;95094.19;;;3.70;100.00
23164;BME280;31429;42.674;23.350;2023-02-03T03:08:45;95095.88;;;3.67;100.00
23164;BME280;31429;42.674;23.350;2023-02-03T03:09:50;95106.97;;;3.41;100.00
23164;BME280;31429;42.674;23.350;2023-02-03T03:10:52;95107.66;;;3.69;100.00
23164;BME280;31429;42.674;23.350;2023-02-03T03:11:57;95111.06;;;3.68;100.00
23164;BME280;31429;42.674;23.350;2023-02-03T03:13:00;95105.09;;;3.75;100.00
23164;BME280;31429;42.674;23.350;2023-02-03T03:14:05;95106.72;;;3.84;100.00
23164;BME280;31429;42.674;23.350;2023-02-03T03:15:10;95105.03;;;3.87;100.00
23164;BME280;31429;42.674;23.350;2023-02-03T03:16:15;95104.31;;;3.69;100.00
23164;BME280;31429;42.674;23.350;2023-02-03T03:17:20;95113.56;;;3.71;100.00
23164;BME280;31429;42.674;23.350;2023-02-03T03:18:27;95108.59;;;3.56;100.00
23164;BME280;31429;42.674;23.350;2023-02-03T03:19:32;95111.03;;;3.71;100.00
23164;BME280;31429;42.674;23.350;2023-02-03T03:20:34;95112.66;;;3.81;100.00
23164;BME280;31429;42.674;23.350;2023-02-03T03:21:39;95112.66;;;3.78;100.00
23164;BME280;31429;42.674;23.350;2023-02-03T03:22:44;95116.06;;;3.73;100.00
23164;BME280;31429;42.674;23.350;2023-02-03T03:23:47;95106.97;;;3.41;100.00
23164;BME280;31429;42.674;23.350;2023-02-03T03:24:53;95124.69;;;3.35;100.00
23164;BME280;31429;42.674;23.350;2023-02-03T03:25:59;95110.31;;;3.49;100.00
23164;BME280;31429;42.674;23.350;2023-02-03T03:27:04;95120.31;;;3.66;100.00
23164;BME280;31429;42.674;23.350;2023-02-03T03:28:10;95119.53;;;3.55;100.00
23164;BME280;31429;42.674;23.350;2023-02-03T03:29:17;95114.72;;;3.04;100.00
23164;BME280;31429;42.674;23.350;2023-02-03T03:30:22;95107.03;;;3.29;100.00
23164;BME280;31429;42.674;23.350;2023-02-03T03:31:25;95121.38;;;3.23;100.00
23164;BME280;31429;42.674;23.350;2023-02-03T03:32:26;95120.66;;;2.89;100.00
23164;BME280;31429;42.674;23.350;2023-02-03T03:33:33;95114.69;;;3.11;100.00
23164;BME280;31429;42.674;23.350;2023-02-03T03:34:34;95115.38;;;3.43;100.00
23164;BME280;31429;42.674;23.350;2023-02-03T03:35:39;95114.56;;;3.43;100.00
23164;BME280;31429;42.674;23.350;2023-02-03T03:36:44;95110.41;;;3.27;100.00
23164;BME280;31429;42.674;23.350;2023-02-03T03:37:51;95124.69;;;3.38;100.00
23164;BME280;31429;42.674;23.350;2023-02-03T03:38:59;95126.47;;;3.17;100.00
23164;BME280;31429;42.674;23.350;2023-02-03T03:40:07;95117.16;;;3.25;100.00
23164;BME280;31429;42.674;23.350;2023-02-03T03:41:14;95123.84;;;3.38;100.00
23164;BME280;31429;42.674;23.350;2023-02-03T03:42:20;95124.63;;;3.51;100.00
23164;BME280;31429;42.674;23.350;2023-02-03T03:43:27;95120.41;;;3.49;100.00
23164;BME280;31429;42.674;23.350;2023-02-03T03:44:40;95125.47;;;3.49;100.00
23164;BME280;31429;42.674;23.350;2023-02-03T03:45:46;95133.25;;;3.03;100.00
23164;BME280;31429;42.674;23.350;2023-02-03T03:46:54;95127.31;;;3.20;100.00
23164;BME280;31429;42.674;23.350;2023-02-03T03:48:02;95134.78;;;3.41;100.00
23164;BME280;31429;42.674;23.350;2023-02-03T03:49:07;95132.28;;;3.40;100.00
23164;BME280;31429;42.674;23.350;2023-02-03T03:50:13;95128.78;;;3.58;100.00
23164;BME280;31429;42.674;23.350;2023-02-03T03:51:19;95128.91;;;3.33;100.00
23164;BME280;31429;42.674;23.350;2023-02-03T03:52:26;95128.06;;;3.37;100.00
23164;BME280;31429;42.674;23.350;2023-02-03T03:53:31;95128.72;;;3.73;100.00
23164;BME280;31429;42.674;23.350;2023-02-03T03:54:35;95127.97;;;3.57;100.00
23164;BME280;31429;42.674;23.350;2023-02-03T03:55:38;95133.97;;;3.30;100.00
23164;BME280;31429;42.674;23.350;2023-02-03T03:56:47;95107.84;;;3.40;100.00
23164;BME280;31429;42.674;23.350;2023-02-03T03:57:53;95119.72;;;3.23;100.00
23164;BME280;31429;42.674;23.350;2023-02-03T03:58:57;95129.09;;;2.83;100.00
23164;BME280;31429;42.674;23.350;2023-02-03T04:00:03;95121.53;;;2.70;100.00
23164;BME280;31429;42.674;23.350;2023-02-03T04:01:06;95136.72;;;2.37;100.00
23164;BME280;31429;42.674;23.350;2023-02-03T04:02:07;95135.88;;;2.44;100.00
23164;BME280;31429;42.674;23.350;2023-02-03T04:03:12;95137.53;;;2.72;100.00
23164;BME280;31429;42.674;23.350;2023-02-03T04:04:15;95141.75;;;2.65;100.00
23164;BME280;31429;42.674;23.350;2023-02-03T04:05:17;95142.63;;;2.33;100.00
23164;BME280;31429;42.674;23.350;2023-02-03T04:06:19;95143.44;;;2.45;100.00
23164;BME280;31429;42.674;23.350;2023-02-03T04:07:20;95145.13;;;2.43;100.00
23164;BME280;31429;42.674;23.350;2023-02-03T04:08:20;95135.81;;;2.86;100.00
23164;BME280;31429;42.674;23.350;2023-02-03T04:09:21;95149.28;;;2.79;100.00
23164;BME280;31429;42.674;23.350;2023-02-03T04:10:30;95148.50;;;2.42;100.00
23164;BME280;31429;42.674;23.350;2023-02-03T04:11:31;95147.66;;;2.52;100.00
23164;BME280;31429;42.674;23.350;2023-02-03T04:12:50;95153.50;;;2.68;100.00
23164;BME280;31429;42.674;23.350;2023-02-03T04:13:51;95156.91;;;2.55;100.00
23164;BME280;31429;42.674;23.350;2023-02-03T04:14:51;95152.66;;;2.61;100.00
23164;BME280;31429;42.674;23.350;2023-02-03T04:15:52;95153.53;;;2.51;100.00
23164;BME280;31429;42.674;23.350;2023-02-03T04:16:52;95151.84;;;2.55;100.00
23164;BME280;31429;42.674;23.350;2023-02-03T04:17:53;95153.50;;;2.75;100.00
23164;BME280;31429;42.674;23.350;2023-02-03T04:18:56;95156.03;;;2.83;100.00
23164;BME280;31429;42.674;23.350;2023-02-03T04:19:58;95166.13;;;2.56;100.00
23164;BME280;31429;42.674;23.350;2023-02-03T04:20:59;95171.22;;;2.44;100.00
23164;BME280;31429;42.674;23.350;2023-02-03T04:21:59;95169.50;;;2.30;100.00
23164;BME280;31429;42.674;23.350;2023-02-03T04:23:00;95163.63;;;2.31;100.00
23164;BME280;31429;42.674;23.350;2023-02-03T04:24:01;95180.44;;;2.42;100.00
23164;BME280;31429;42.674;23.350;2023-02-03T04:25:01;95181.28;;;2.60;100.00
23164;BME280;31429;42.674;23.350;2023-02-03T04:26:02;95177.94;;;2.52;100.00
23164;BME280;31429;42.674;23.350;2023-02-03T04:27:03;95188.03;;;2.49;100.00
23164;BME280;31429;42.674;23.350;2023-02-03T04:28:04;95185.47;;;2.36;100.00
23164;BME280;31429;42.674;23.350;2023-02-03T04:29:05;95180.44;;;2.23;100.00
23164;BME280;31429;42.674;23.350;2023-02-03T04:30:07;95193.03;;;2.79;100.00
23164;BME280;31429;42.674;23.350;2023-02-03T04:31:08;95189.69;;;2.77;100.00
23164;BME280;31429;42.674;23.350;2023-02-03T04:32:09;95197.25;;;2.79;100.00
23164;BME280;31429;42.674;23.350;2023-02-03T04:33:10;95187.97;;;2.84;100.00
23164;BME280;31429;42.674;23.350;2023-02-03T04:34:10;95182.91;;;2.99;100.00
23164;BME280;31429;42.674;23.350;2023-02-03T04:35:13;95194.75;;;2.65;100.00
23164;BME280;31429;42.674;23.350;2023-02-03T04:36:14;95200.63;;;2.70;100.00
23164;BME280;31429;42.674;23.350;2023-02-03T04:37:14;95192.19;;;2.76;100.00
23164;BME280;31429;42.674;23.350;2023-02-03T04:38:15;95195.59;;;2.72;100.00
23164;BME280;31429;42.674;23.350;2023-02-03T04:39:15;95194.75;;;2.80;100.00
23164;BME280;31429;42.674;23.350;2023-02-03T04:40:16;95195.56;;;2.82;100.00
23164;BME280;31429;42.674;23.350;2023-02-03T04:41:17;95192.22;;;2.83;100.00
23164;BME280;31429;42.674;23.350;2023-02-03T04:42:18;95201.44;;;2.81;100.00
23164;BME280;31429;42.674;23.350;2023-02-03T04:43:19;95203.13;;;2.96;100.00
23164;BME280;31429;42.674;23.350;2023-02-03T04:44:19;95207.34;;;2.77;100.00
23164;BME280;31429;42.674;23.350;2023-02-03T04:45:20;95207.34;;;2.68;100.00
23164;BME280;31429;42.674;23.350;2023-02-03T04:46:20;95215.72;;;3.07;100.00
23164;BME280;31429;42.674;23.350;2023-02-03T04:47:21;95214.09;;;2.92;100.00
23164;BME280;31429;42.674;23.350;2023-02-03T04:48:22;95214.84;;;3.15;100.00
23164;BME280;31429;42.674;23.350;2023-02-03T04:49:22;95211.47;;;3.21;100.00
23164;BME280;31429;42.674;23.350;2023-02-03T04:50:25;95214.91;;;3.00;100.00
23164;BME280;31429;42.674;23.350;2023-02-03T04:51:25;95222.53;;;2.61;100.00
23164;BME280;31429;42.674;23.350;2023-02-03T04:52:26;95217.44;;;2.85;100.00
23164;BME280;31429;42.674;23.350;2023-02-03T04:53:27;95221.63;;;3.09;100.00
23164;BME280;31429;42.674;23.350;2023-02-03T04:54:27;95215.66;;;3.32;100.00
23164;BME280;31429;42.674;23.350;2023-02-03T04:55:28;95212.34;;;3.12;100.00
23164;BME280;31429;42.674;23.350;2023-02-03T04:56:29;95218.25;;;3.08;100.00
23164;BME280;31429;42.674;23.350;2023-02-03T04:57:30;95212.34;;;3.17;100.00
23164;BME280;31429;42.674;23.350;2023-02-03T04:58:30;95216.56;;;3.09;100.00
23164;BME280;31429;42.674;23.350;2023-02-03T04:59:31;95214.84;;;3.18;100.00
23164;BME280;31429;42.674;23.350;2023-02-03T05:00:32;95224.13;;;3.13;100.00
23164;BME280;31429;42.674;23.350;2023-02-03T05:01:32;95216.56;;;3.06;100.00
23164;BME280;31429;42.674;23.350;2023-02-03T05:02:33;95220.75;;;3.26;100.00
23164;BME280;31429;42.674;23.350;2023-02-03T05:03:34;95218.97;;;3.53;100.00
23164;BME280;31429;42.674;23.350;2023-02-03T05:04:34;95224.03;;;3.48;100.00
23164;BME280;31429;42.674;23.350;2023-02-03T05:05:37;95231.66;;;3.30;100.00
23164;BME280;31429;42.674;23.350;2023-02-03T05:06:37;95231.69;;;3.31;100.00
23164;BME280;31429;42.674;23.350;2023-02-03T05:07:38;95219.91;;;3.12;100.00
23164;BME280;31429;42.674;23.350;2023-02-03T05:08:38;95230.84;;;3.31;100.00
23164;BME280;31429;42.674;23.350;2023-02-03T05:09:39;95229.19;;;2.98;100.00
23164;BME280;31429;42.674;23.350;2023-02-03T05:10:40;95230.00;;;3.21;100.00
23164;BME280;31429;42.674;23.350;2023-02-03T05:11:40;95230.81;;;3.38;100.00
23164;BME280;31429;42.674;23.350;2023-02-03T05:12:41;95230.88;;;3.23;100.00
23164;BME280;31429;42.674;23.350;2023-02-03T05:13:42;95244.34;;;3.13;100.00
23164;BME280;31429;42.674;23.350;2023-02-03T05:14:42;95238.44;;;3.07;100.00
23164;BME280;31429;42.674;23.350;2023-02-03T05:15:43;95242.66;;;3.23;100.00
23164;BME280;31429;42.674;23.350;2023-02-03T05:16:44;95241.81;;;3.15;100.00
23164;BME280;31429;42.674;23.350;2023-02-03T05:17:45;95231.66;;;3.30;100.00
23164;BME280;31429;42.674;23.350;2023-02-03T05:18:45;95251.88;;;3.33;100.00
23164;BME280;31429;42.674;23.350;2023-02-03T05:19:46;95244.34;;;3.12;100.00
23164;BME280;31429;42.674;23.350;2023-02-03T05:20:48;95248.56;;;2.99;100.00
23164;BME280;31429;42.674;23.350;2023-02-03T05:21:49;95242.66;;;3.20;100.00
23164;BME280;31429;42.674;23.350;2023-02-03T05:22:50;95254.47;;;2.86;100.00
23164;BME280;31429;42.674;23.350;2023-02-03T05:23:50;95246.06;;;2.82;100.00
23164;BME280;31429;42.674;23.350;2023-02-03T05:24:51;95243.53;;;2.78;100.00
23164;BME280;31429;42.674;23.350;2023-02-03T05:25:51;95246.88;;;3.00;100.00
23164;BME280;31429;42.674;23.350;2023-02-03T05:26:52;95253.59;;;3.25;100.00
23164;BME280;31429;42.674;23.350;2023-02-03T05:27:53;95245.16;;;3.12;100.00
23164;BME280;31429;42.674;23.350;2023-02-03T05:28:53;95259.47;;;3.27;100.00
23164;BME280;31429;42.674;23.350;2023-02-03T05:29:54;95261.13;;;3.32;100.00
23164;BME280;31429;42.674;23.350;2023-02-03T05:30:56;95245.97;;;3.35;100.00
23164;BME280;31429;42.674;23.350;2023-02-03T05:31:57;95255.28;;;3.29;100.00